sensor_id;sensor_type;location;lat;lon;timestamp;temperature;humidity
5246;DHT22;54412;51.206;6.888;2023-11-19T00:00:42;10.50;99.90
5246;DHT22;54412;51.206;6.888;2023-11-19T00:03:08;10.50;99.90
5246;DHT22;54412;51.206;6.888;2023-11-19T00:05:34;10.50;99.90
5246;DHT22;54412;51.206;6.888;2023-11-19T00:08:00;10.50;99.90
5246;DHT22;54412;51.206;6.888;2023-11-19T00:10:27;10.50;99.90
5246;DHT22;54412;51.206;6.888;2023-11-19T00:12:53;10.50;99.90
5246;DHT22;54412;51.206;6.888;2023-11-19T00:15:18;10.50;99.90
5246;DHT22;54412;51.206;6.888;2023-11-19T00:17:45;10.50;99.90
5246;DHT22;54412;51.206;6.888;2023-11-19T00:20:13;10.60;99.90
5246;DHT22;54412;51.206;6.888;2023-11-19T00:22:43;10.60;99.90
5246;DHT22;54412;51.206;6.888;2023-11-19T00:25:09;10.60;99.90
5246;DHT22;54412;51.206;6.888;2023-11-19T00:27:36;10.60;99.90
5246;DHT22;54412;51.206;6.888;2023-11-19T00:30:06;10.60;99.90
5246;DHT22;54412;51.206;6.888;2023-11-19T00:32:32;10.70;99.90
5246;DHT22;54412;51.206;6.888;2023-11-19T00:34:58;10.70;99.90
5246;DHT22;54412;51.206;6.888;2023-11-19T00:37:24;10.80;99.90
5246;DHT22;54412;51.206;6.888;2023-11-19T00:39:49;10.70;99.90
5246;DHT22;54412;51.206;6.888;2023-11-19T00:42:15;10.80;99.90
5246;DHT22;54412;51.206;6.888;2023-11-19T00:44:41;10.80;99.90
5246;DHT22;54412;51.206;6.888;2023-11-19T00:47:07;10.90;99.90
5246;DHT22;54412;51.206;6.888;2023-11-19T00:49:32;10.90;99.90
5246;DHT22;54412;51.206;6.888;2023-11-19T00:51:59;10.90;99.90
5246;DHT22;54412;51.206;6.888;2023-11-19T00:54:25;11.00;99.90
5246;DHT22;54412;51.206;6.888;2023-11-19T00:56:52;10.90;99.90
5246;DHT22;54412;51.206;6.888;2023-11-19T00:59:18;11.00;99.90
5246;DHT22;54412;51.206;6.888;2023-11-19T01:01:44;11.00;99.90
5246;DHT22;54412;51.206;6.888;2023-11-19T01:04:10;11.00;99.90
5246;DHT22;54412;51.206;6.888;2023-11-19T01:06:36;11.00;99.90
5246;DHT22;54412;51.206;6.888;2023-11-19T01:09:02;11.00;99.90
5246;DHT22;54412;51.206;6.888;2023-11-19T01:11:28;11.00;99.90
5246;DHT22;54412;51.206;6.888;2023-11-19T01:13:54;11.00;99.90
5246;DHT22;54412;51.206;6.888;2023-11-19T01:16:19;11.00;99.90
5246;DHT22;54412;51.206;6.888;2023-11-19T01:18:49;11.10;99.90
5246;DHT22;54412;51.206;6.888;2023-11-19T01:21:15;11.10;99.90
5246;DHT22;54412;51.206;6.888;2023-11-19T01:23:42;11.10;99.90
5246;DHT22;54412;51.206;6.888;2023-11-19T01:26:09;11.20;99.90
5246;DHT22;54412;51.206;6.888;2023-11-19T01:28:36;11.30;99.90
5246;DHT22;54412;51.206;6.888;2023-11-19T01:31:02;11.40;99.90
5246;DHT22;54412;51.206;6.888;2023-11-19T01:33:28;11.40;99.90
5246;DHT22;54412;51.206;6.888;2023-11-19T01:35:55;11.50;99.90
5246;DHT22;54412;51.206;6.888;2023-11-19T01:38:24;11.50;99.90
5246;DHT22;54412;51.206;6.888;2023-11-19T01:40:50;11.50;99.90
5246;DHT22;54412;51.206;6.888;2023-11-19T01:43:37;11.60;99.90
5246;DHT22;54412;51.206;6.888;2023-11-19T01:46:08;11.70;99.90
5246;DHT22;54412;51.206;6.888;2023-11-19T01:48:41;11.80;99.90
5246;DHT22;54412;51.206;6.888;2023-11-19T01:51:09;11.90;99.90
5246;DHT22;54412;51.206;6.888;2023-11-19T01:53:37;11.90;99.90
5246;DHT22;54412;51.206;6.888;2023-11-19T01:56:07;12.00;99.90
5246;DHT22;54412;51.206;6.888;2023-11-19T01:58:35;12.00;99.90
5246;DHT22;54412;51.206;6.888;2023-11-19T02:01:02;12.00;99.90
5246;DHT22;54412;51.206;6.888;2023-11-19T02:03:31;12.10;99.90
5246;DHT22;54412;51.206;6.888;2023-11-19T02:06:01;12.10;99.90
5246;DHT22;54412;51.206;6.888;2023-11-19T02:08:29;12.10;99.90
5246;DHT22;54412;51.206;6.888;2023-11-19T02:10:55;12.10;99.90
5246;DHT22;54412;51.206;6.888;2023-11-19T02:13:24;12.10;99.90
5246;DHT22;54412;51.206;6.888;2023-11-19T02:15:51;12.10;99.90
5246;DHT22;54412;51.206;6.888;2023-11-19T02:18:21;12.10;99.90
5246;DHT22;54412;51.206;6.888;2023-11-19T02:20:59;12.10;99.90
5246;DHT22;54412;51.206;6.888;2023-11-19T02:23:29;12.20;99.90
5246;DHT22;54412;51.206;6.888;2023-11-19T02:26:13;12.10;99.90
5246;DHT22;54412;51.206;6.888;2023-11-19T02:28:43;12.20;99.90
5246;DHT22;54412;51.206;6.888;2023-11-19T02:31:10;12.20;99.90
5246;DHT22;54412;51.206;6.888;2023-11-19T02:33:37;12.20;99.90
5246;DHT22;54412;51.206;6.888;2023-11-19T02:36:07;12.20;99.90
5246;DHT22;54412;51.206;6.888;2023-11-19T02:38:34;12.20;99.90
5246;DHT22;54412;51.206;6.888;2023-11-19T02:41:03;12.30;99.90
5246;DHT22;54412;51.206;6.888;2023-11-19T02:43:33;12.30;99.90
5246;DHT22;54412;51.206;6.888;2023-11-19T02:46:03;12.30;99.90
5246;DHT22;54412;51.206;6.888;2023-11-19T02:48:33;12.30;99.90
5246;DHT22;54412;51.206;6.888;2023-11-19T02:51:01;12.30;99.90
5246;DHT22;54412;51.206;6.888;2023-11-19T02:53:29;12.30;99.90
5246;DHT22;54412;51.206;6.888;2023-11-19T02:55:55;12.40;99.90
5246;DHT22;54412;51.206;6.888;2023-11-19T02:58:27;12.40;99.90
5246;DHT22;54412;51.206;6.888;2023-11-19T03:00:54;12.40;99.90
5246;DHT22;54412;51.206;6.888;2023-11-19T03:03:25;12.50;99.90
5246;DHT22;54412;51.206;6.888;2023-11-19T03:05:57;12.40;99.90
5246;DHT22;54412;51.206;6.888;2023-11-19T03:08:22;12.40;99.90
5246;DHT22;54412;51.206;6.888;2023-11-19T03:10:48;12.50;99.90
5246;DHT22;54412;51.206;6.888;2023-11-19T03:13:14;12.50;99.90
5246;DHT22;54412;51.206;6.888;2023-11-19T03:15:41;12.60;99.90
5246;DHT22;54412;51.206;6.888;2023-11-19T03:18:07;12.70;99.90
5246;DHT22;54412;51.206;6.888;2023-11-19T03:20:33;12.70;99.90
5246;DHT22;54412;51.206;6.888;2023-11-19T03:22:59;12.60;99.90
5246;DHT22;54412;51.206;6.888;2023-11-19T03:25:27;12.50;99.90
5246;DHT22;54412;51.206;6.888;2023-11-19T03:28:01;12.50;99.90
5246;DHT22;54412;51.206;6.888;2023-11-19T03:30:29;12.60;99.90
5246;DHT22;54412;51.206;6.888;2023-11-19T03:32:56;12.60;99.90
5246;DHT22;54412;51.206;6.888;2023-11-19T03:35:24;12.60;99.90
5246;DHT22;54412;51.206;6.888;2023-11-19T03:37:50;12.60;99.90
5246;DHT22;54412;51.206;6.888;2023-11-19T03:40:17;12.60;99.90
5246;DHT22;54412;51.206;6.888;2023-11-19T03:42:47;12.60;99.90
5246;DHT22;54412;51.206;6.888;2023-11-19T03:45:13;12.60;99.90
5246;DHT22;54412;51.206;6.888;2023-11-19T03:47:41;12.50;99.90
5246;DHT22;54412;51.206;6.888;2023-11-19T03:50:06;12.50;99.90
5246;DHT22;54412;51.206;6.888;2023-11-19T03:52:33;12.40;99.90
5246;DHT22;54412;51.206;6.888;2023-11-19T03:54:59;12.40;99.90
5246;DHT22;54412;51.206;6.888;2023-11-19T03:57:26;12.40;99.90
5246;DHT22;54412;51.206;6.888;2023-11-19T03:59:53;12.40;99.90
5246;DHT22;54412;51.206;6.888;2023-11-19T04:02:18;12.40;99.90
5246;DHT22;54412;51.206;6.888;2023-11-19T04:04:44;12.40;99.90
5246;DHT22;54412;51.206;6.888;2023-11-19T04:07:10;12.50;99.90
5246;DHT22;54412;51.206;6.888;2023-11-19T04:09:35;12.60;99.90
5246;DHT22;54412;51.206;6.888;2023-11-19T04:12:03;12.50;99.90
5246;DHT22;54412;51.206;6.888;2023-11-19T04:14:29;12.50;99.90
5246;DHT22;54412;51.206;6.888;2023-11-19T04:16:55;12.50;99.90
5246;DHT22;54412;51.206;6.888;2023-11-19T04:19:21;12.40;99.90
5246;DHT22;54412;51.206;6.888;2023-11-19T04:21:47;12.40;99.90
5246;DHT22;54412;51.206;6.888;2023-11-19T04:24:13;12.40;99.90
5246;DHT22;54412;51.206;6.888;2023-11-19T04:26:43;12.30;99.90
5246;DHT22;54412;51.206;6.888;2023-11-19T04:29:14;12.30;99.90
5246;DHT22;54412;51.206;6.888;2023-11-19T04:31:40;12.40;99.90
5246;DHT22;54412;51.206;6.888;2023-11-19T04:34:06;12.30;99.90
5246;DHT22;54412;51.206;6.888;2023-11-19T04:36:33;12.30;99.90
5246;DHT22;54412;51.206;6.888;2023-11-19T04:38:59;12.40;99.90
5246;DHT22;54412;51.206;6.888;2023-11-19T04:41:26;12.40;99.90
5246;DHT22;54412;51.206;6.888;2023-11-19T04:43:55;12.40;99.90
5246;DHT22;54412;51.206;6.888;2023-11-19T04:46:21;12.40;99.90
5246;DHT22;54412;51.206;6.888;2023-11-19T04:48:46;12.30;99.90
5246;DHT22;54412;51.206;6.888;2023-11-19T04:51:12;12.30;99.90
5246;DHT22;54412;51.206;6.888;2023-11-19T04:53:38;12.30;99.90
5246;DHT22;54412;51.206;6.888;2023-11-19T04:56:10;12.30;99.90
5246;DHT22;54412;51.206;6.888;2023-11-19T04:58:36;12.40;99.90
5246;DHT22;54412;51.206;6.888;2023-11-19T05:01:03;12.40;99.90
5246;DHT22;54412;51.206;6.888;2023-11-19T05:03:30;12.30;99.90
5246;DHT22;54412;51.206;6.888;2023-11-19T05:05:57;12.30;99.90
5246;DHT22;54412;51.206;6.888;2023-11-19T05:08:23;12.30;99.90
5246;DHT22;54412;51.206;6.888;2023-11-19T05:10:49;12.30;99.90
5246;DHT22;54412;51.206;6.888;2023-11-19T05:13:14;12.30;99.90
5246;DHT22;54412;51.206;6.888;2023-11-19T05:15:40;12.30;99.90
5246;DHT22;54412;51.206;6.888;2023-11-19T05:18:06;12.20;99.90
5246;DHT22;54412;51.206;6.888;2023-11-19T05:20:32;12.30;99.90
5246;DHT22;54412;51.206;6.888;2023-11-19T05:22:58;12.30;99.90
5246;DHT22;54412;51.206;6.888;2023-11-19T05:25:26;12.20;99.90
5246;DHT22;54412;51.206;6.888;2023-11-19T05:27:52;12.20;99.90
5246;DHT22;54412;51.206;6.888;2023-11-19T05:30:19;12.20;99.90
5246;DHT22;54412;51.206;6.888;2023-11-19T05:32:44;12.20;99.90
5246;DHT22;54412;51.206;6.888;2023-11-19T05:35:11;12.10;99.90
5246;DHT22;54412;51.206;6.888;2023-11-19T05:37:37;12.20;99.90
5246;DHT22;54412;51.206;6.888;2023-11-19T05:40:03;12.20;99.90
5246;DHT22;54412;51.206;6.888;2023-11-19T05:42:37;12.20;99.90
5246;DHT22;54412;51.206;6.888;2023-11-19T05:45:03;12.20;99.90
5246;DHT22;54412;51.206;6.888;2023-11-19T05:47:29;12.20;99.90
5246;DHT22;54412;51.206;6.888;2023-11-19T05:49:54;12.20;99.90
5246;DHT22;54412;51.206;6.888;2023-11-19T05:52:20;12.20;99.90
5246;DHT22;54412;51.206;6.888;2023-11-19T05:54:47;12.20;99.90
5246;DHT22;54412;51.206;6.888;2023-11-19T05:57:17;12.30;99.90
5246;DHT22;54412;51.206;6.888;2023-11-19T05:59:49;12.30;99.90
5246;DHT22;54412;51.206;6.888;2023-11-19T06:02:15;12.30;99.90
5246;DHT22;54412;51.206;6.888;2023-11-19T06:04:41;12.30;99.90
5246;DHT22;54412;51.206;6.888;2023-11-19T06:07:09;12.30;99.90
5246;DHT22;54412;51.206;6.888;2023-11-19T06:09:35;12.30;99.90
5246;DHT22;54412;51.206;6.888;2023-11-19T06:12:01;12.30;99.90
5246;DHT22;54412;51.206;6.888;2023-11-19T06:14:31;12.30;99.90
5246;DHT22;54412;51.206;6.888;2023-11-19T06:16:57;12.20;99.90
5246;DHT22;54412;51.206;6.888;2023-11-19T06:19:22;12.20;99.90
5246;DHT22;54412;51.206;6.888;2023-11-19T06:21:50;12.20;99.90
5246;DHT22;54412;51.206;6.888;2023-11-19T06:24:15;12.20;99.90
5246;DHT22;54412;51.206;6.888;2023-11-19T06:26:41;12.10;99.90
5246;DHT22;54412;51.206;6.888;2023-11-19T06:29:07;12.10;99.90
5246;DHT22;54412;51.206;6.888;2023-11-19T06:31:32;12.10;99.90
5246;DHT22;54412;51.206;6.888;2023-11-19T06:33:58;12.10;99.90
5246;DHT22;54412;51.206;6.888;2023-11-19T06:36:24;12.10;99.90
5246;DHT22;54412;51.206;6.888;2023-11-19T06:38:49;12.00;99.90
5246;DHT22;54412;51.206;6.888;2023-11-19T06:41:15;12.00;99.90
5246;DHT22;54412;51.206;6.888;2023-11-19T06:43:41;12.00;99.90
5246;DHT22;54412;51.206;6.888;2023-11-19T06:46:14;12.00;99.90
5246;DHT22;54412;51.206;6.888;2023-11-19T06:48:44;11.90;99.90
5246;DHT22;54412;51.206;6.888;2023-11-19T06:51:10;11.90;99.90
5246;DHT22;54412;51.206;6.888;2023-11-19T06:53:36;11.90;99.90
5246;DHT22;54412;51.206;6.888;2023-11-19T06:56:03;11.90;99.90
5246;DHT22;54412;51.206;6.888;2023-11-19T06:58:32;11.90;99.90
5246;DHT22;54412;51.206;6.888;2023-11-19T07:01:01;11.80;99.90
5246;DHT22;54412;51.206;6.888;2023-11-19T07:03:26;11.90;99.90
5246;DHT22;54412;51.206;6.888;2023-11-19T07:05:52;11.80;99.90
5246;DHT22;54412;51.206;6.888;2023-11-19T07:08:18;11.80;99.90
5246;DHT22;54412;51.206;6.888;2023-11-19T07:10:43;11.80;99.90
5246;DHT22;54412;51.206;6.888;2023-11-19T07:13:09;11.80;99.90
5246;DHT22;54412;51.206;6.888;2023-11-19T07:15:35;11.80;99.90
5246;DHT22;54412;51.206;6.888;2023-11-19T07:18:00;11.80;99.90
5246;DHT22;54412;51.206;6.888;2023-11-19T07:20:26;11.80;99.90
5246;DHT22;54412;51.206;6.888;2023-11-19T07:22:53;11.80;99.90
5246;DHT22;54412;51.206;6.888;2023-11-19T07:25:20;11.70;99.90
5246;DHT22;54412;51.206;6.888;2023-11-19T07:27:46;11.70;99.90
5246;DHT22;54412;51.206;6.888;2023-11-19T07:30:13;11.70;99.90
5246;DHT22;54412;51.206;6.888;2023-11-19T07:32:39;11.80;99.90
5246;DHT22;54412;51.206;6.888;2023-11-19T07:35:05;11.80;99.90
5246;DHT22;54412;51.206;6.888;2023-11-19T07:37:31;11.70;99.90
5246;DHT22;54412;51.206;6.888;2023-11-19T07:39:57;11.70;99.90
5246;DHT22;54412;51.206;6.888;2023-11-19T07:42:22;11.80;99.90
5246;DHT22;54412;51.206;6.888;2023-11-19T07:44:49;11.80;99.90
5246;DHT22;54412;51.206;6.888;2023-11-19T07:47:14;11.80;99.90
5246;DHT22;54412;51.206;6.888;2023-11-19T07:49:40;11.80;99.90
5246;DHT22;54412;51.206;6.888;2023-11-19T07:52:06;11.80;99.90
5246;DHT22;54412;51.206;6.888;2023-11-19T07:54:32;11.90;99.90
5246;DHT22;54412;51.206;6.888;2023-11-19T07:56:58;11.90;99.90
5246;DHT22;54412;51.206;6.888;2023-11-19T07:59:23;11.90;99.90
5246;DHT22;54412;51.206;6.888;2023-11-19T08:01:49;11.90;99.90
5246;DHT22;54412;51.206;6.888;2023-11-19T08:04:15;11.90;99.90
5246;DHT22;54412;51.206;6.888;2023-11-19T08:06:40;12.00;99.90
5246;DHT22;54412;51.206;6.888;2023-11-19T08:09:06;12.00;99.90
5246;DHT22;54412;51.206;6.888;2023-11-19T08:11:33;12.00;99.90
5246;DHT22;54412;51.206;6.888;2023-11-19T08:13:59;12.10;99.90
5246;DHT22;54412;51.206;6.888;2023-11-19T08:16:24;12.20;99.90
5246;DHT22;54412;51.206;6.888;2023-11-19T08:18:50;12.20;99.90
5246;DHT22;54412;51.206;6.888;2023-11-19T08:21:16;12.30;99.90
5246;DHT22;54412;51.206;6.888;2023-11-19T08:23:42;12.30;99.90
5246;DHT22;54412;51.206;6.888;2023-11-19T08:26:07;12.30;99.90
5246;DHT22;54412;51.206;6.888;2023-11-19T08:28:34;12.30;99.90
5246;DHT22;54412;51.206;6.888;2023-11-19T08:31:00;12.20;99.90
5246;DHT22;54412;51.206;6.888;2023-11-19T08:33:26;12.20;99.90
5246;DHT22;54412;51.206;6.888;2023-11-19T08:35:52;12.30;99.90
5246;DHT22;54412;51.206;6.888;2023-11-19T08:38:18;12.30;99.90
5246;DHT22;54412;51.206;6.888;2023-11-19T08:40:43;12.30;99.90
5246;DHT22;54412;51.206;6.888;2023-11-19T08:43:09;12.40;99.90
5246;DHT22;54412;51.206;6.888;2023-11-19T08:45:35;12.40;99.90
5246;DHT22;54412;51.206;6.888;2023-11-19T08:48:01;12.40;99.90
5246;DHT22;54412;51.206;6.888;2023-11-19T08:50:27;12.50;99.90
5246;DHT22;54412;51.206;6.888;2023-11-19T08:52:53;12.60;99.90
5246;DHT22;54412;51.206;6.888;2023-11-19T08:55:18;12.80;99.90
5246;DHT22;54412;51.206;6.888;2023-11-19T08:57:44;13.00;99.90
5246;DHT22;54412;51.206;6.888;2023-11-19T09:00:10;12.90;99.90
5246;DHT22;54412;51.206;6.888;2023-11-19T09:02:39;12.90;99.90
5246;DHT22;54412;51.206;6.888;2023-11-19T09:05:05;13.00;99.90
5246;DHT22;54412;51.206;6.888;2023-11-19T09:07:33;12.90;99.90
5246;DHT22;54412;51.206;6.888;2023-11-19T09:09:58;12.70;99.90
5246;DHT22;54412;51.206;6.888;2023-11-19T09:12:24;12.70;99.90
5246;DHT22;54412;51.206;6.888;2023-11-19T09:14:50;12.70;99.90
5246;DHT22;54412;51.206;6.888;2023-11-19T09:17:16;12.70;99.90
5246;DHT22;54412;51.206;6.888;2023-11-19T09:19:42;12.80;99.90
5246;DHT22;54412;51.206;6.888;2023-11-19T09:22:08;13.00;99.90
5246;DHT22;54412;51.206;6.888;2023-11-19T09:24:34;12.90;99.90
5246;DHT22;54412;51.206;6.888;2023-11-19T09:26:59;12.90;99.90
5246;DHT22;54412;51.206;6.888;2023-11-19T09:29:25;13.00;99.90
5246;DHT22;54412;51.206;6.888;2023-11-19T09:31:51;13.20;99.90
5246;DHT22;54412;51.206;6.888;2023-11-19T09:34:17;13.10;99.90
5246;DHT22;54412;51.206;6.888;2023-11-19T09:36:42;13.10;99.90
5246;DHT22;54412;51.206;6.888;2023-11-19T09:39:13;13.30;99.90
5246;DHT22;54412;51.206;6.888;2023-11-19T09:41:43;13.50;99.90
5246;DHT22;54412;51.206;6.888;2023-11-19T09:44:10;13.70;99.90
5246;DHT22;54412;51.206;6.888;2023-11-19T09:46:38;13.60;99.90
5246;DHT22;54412;51.206;6.888;2023-11-19T09:49:08;13.30;99.90
5246;DHT22;54412;51.206;6.888;2023-11-19T09:51:36;13.20;99.90
5246;DHT22;54412;51.206;6.888;2023-11-19T09:54:02;13.20;99.90
5246;DHT22;54412;51.206;6.888;2023-11-19T09:56:29;13.10;99.90
5246;DHT22;54412;51.206;6.888;2023-11-19T09:58:55;13.00;99.90
5246;DHT22;54412;51.206;6.888;2023-11-19T10:01:21;13.10;99.90
5246;DHT22;54412;51.206;6.888;2023-11-19T10:03:47;13.20;99.90
5246;DHT22;54412;51.206;6.888;2023-11-19T10:06:15;13.20;99.90
5246;DHT22;54412;51.206;6.888;2023-11-19T10:08:41;13.10;99.90
5246;DHT22;54412;51.206;6.888;2023-11-19T10:11:09;13.10;99.90
5246;DHT22;54412;51.206;6.888;2023-11-19T10:13:37;13.10;99.90
5246;DHT22;54412;51.206;6.888;2023-11-19T10:16:12;13.00;99.90
5246;DHT22;54412;51.206;6.888;2023-11-19T10:18:46;13.10;99.90
5246;DHT22;54412;51.206;6.888;2023-11-19T10:21:19;13.10;99.90
5246;DHT22;54412;51.206;6.888;2023-11-19T10:23:57;13.10;99.90
5246;DHT22;54412;51.206;6.888;2023-11-19T10:26:26;13.10;99.90
5246;DHT22;54412;51.206;6.888;2023-11-19T10:28:52;13.20;99.90
5246;DHT22;54412;51.206;6.888;2023-11-19T10:31:20;13.30;99.90
5246;DHT22;54412;51.206;6.888;2023-11-19T10:33:54;13.40;99.90
5246;DHT22;54412;51.206;6.888;2023-11-19T10:36:21;13.50;99.90
5246;DHT22;54412;51.206;6.888;2023-11-19T10:38:56;13.60;99.90
5246;DHT22;54412;51.206;6.888;2023-11-19T10:41:32;13.50;99.90
5246;DHT22;54412;51.206;6.888;2023-11-19T10:43:58;13.50;99.90
5246;DHT22;54412;51.206;6.888;2023-11-19T10:46:39;13.40;99.90
5246;DHT22;54412;51.206;6.888;2023-11-19T10:49:09;13.40;99.90
5246;DHT22;54412;51.206;6.888;2023-11-19T10:51:36;13.40;99.90
5246;DHT22;54412;51.206;6.888;2023-11-19T10:54:03;13.40;99.90
5246;DHT22;54412;51.206;6.888;2023-11-19T10:56:31;13.40;99.90
5246;DHT22;54412;51.206;6.888;2023-11-19T10:58:59;13.40;99.90
5246;DHT22;54412;51.206;6.888;2023-11-19T11:01:42;13.40;99.90
5246;DHT22;54412;51.206;6.888;2023-11-19T11:04:22;13.40;99.90
5246;DHT22;54412;51.206;6.888;2023-11-19T11:06:51;13.30;99.90
5246;DHT22;54412;51.206;6.888;2023-11-19T11:09:20;13.40;99.90
5246;DHT22;54412;51.206;6.888;2023-11-19T11:11:47;13.50;99.90
5246;DHT22;54412;51.206;6.888;2023-11-19T11:14:13;13.50;99.90
5246;DHT22;54412;51.206;6.888;2023-11-19T11:16:43;13.60;99.90
5246;DHT22;54412;51.206;6.888;2023-11-19T11:19:10;13.60;99.90
5246;DHT22;54412;51.206;6.888;2023-11-19T11:21:39;13.50;99.90
5246;DHT22;54412;51.206;6.888;2023-11-19T11:30:19;13.50;99.90
5246;DHT22;54412;51.206;6.888;2023-11-19T11:33:26;13.80;99.90
5246;DHT22;54412;51.206;6.888;2023-11-19T11:36:17;14.00;99.90
5246;DHT22;54412;51.206;6.888;2023-11-19T11:38:48;14.30;99.90
5246;DHT22;54412;51.206;6.888;2023-11-19T11:41:22;14.30;99.90
5246;DHT22;54412;51.206;6.888;2023-11-19T11:43:52;14.30;99.90
5246;DHT22;54412;51.206;6.888;2023-11-19T11:54:25;13.80;99.90
5246;DHT22;54412;51.206;6.888;2023-11-19T11:57:11;13.90;99.90
5246;DHT22;54412;51.206;6.888;2023-11-19T12:02:08;13.80;99.90
5246;DHT22;54412;51.206;6.888;2023-11-19T12:04:36;13.70;99.90
5246;DHT22;54412;51.206;6.888;2023-11-19T12:07:06;13.80;99.90
5246;DHT22;54412;51.206;6.888;2023-11-19T12:09:43;13.90;99.90
5246;DHT22;54412;51.206;6.888;2023-11-19T12:12:27;13.90;99.90
5246;DHT22;54412;51.206;6.888;2023-11-19T12:20:00;13.90;99.90
5246;DHT22;54412;51.206;6.888;2023-11-19T12:22:27;14.10;99.90
5246;DHT22;54412;51.206;6.888;2023-11-19T12:24:54;14.40;99.90
5246;DHT22;54412;51.206;6.888;2023-11-19T12:27:20;14.40;99.90
5246;DHT22;54412;51.206;6.888;2023-11-19T12:29:49;14.40;99.90
5246;DHT22;54412;51.206;6.888;2023-11-19T12:32:15;14.30;99.90
5246;DHT22;54412;51.206;6.888;2023-11-19T12:34:41;14.30;99.90
5246;DHT22;54412;51.206;6.888;2023-11-19T12:37:07;14.10;99.90
5246;DHT22;54412;51.206;6.888;2023-11-19T12:39:35;14.00;99.90
5246;DHT22;54412;51.206;6.888;2023-11-19T12:42:01;13.80;99.90
5246;DHT22;54412;51.206;6.888;2023-11-19T12:44:27;13.70;99.90
5246;DHT22;54412;51.206;6.888;2023-11-19T12:47:00;13.70;99.90
5246;DHT22;54412;51.206;6.888;2023-11-19T12:49:26;13.70;99.90
5246;DHT22;54412;51.206;6.888;2023-11-19T12:51:52;13.60;99.90
5246;DHT22;54412;51.206;6.888;2023-11-19T12:54:18;13.50;99.90
5246;DHT22;54412;51.206;6.888;2023-11-19T12:56:53;13.40;99.90
5246;DHT22;54412;51.206;6.888;2023-11-19T12:59:19;13.30;99.90
5246;DHT22;54412;51.206;6.888;2023-11-19T13:02:03;13.30;99.90
5246;DHT22;54412;51.206;6.888;2023-11-19T13:04:31;13.40;99.90
5246;DHT22;54412;51.206;6.888;2023-11-19T13:07:00;14.00;99.90
5246;DHT22;54412;51.206;6.888;2023-11-19T13:09:29;13.90;99.90
5246;DHT22;54412;51.206;6.888;2023-11-19T13:11:55;13.90;99.90
5246;DHT22;54412;51.206;6.888;2023-11-19T13:14:22;13.70;99.90
5246;DHT22;54412;51.206;6.888;2023-11-19T13:16:48;13.70;99.90
5246;DHT22;54412;51.206;6.888;2023-11-19T13:19:15;13.70;99.90
5246;DHT22;54412;51.206;6.888;2023-11-19T13:21:45;13.60;99.90
5246;DHT22;54412;51.206;6.888;2023-11-19T13:24:14;13.60;99.90
5246;DHT22;54412;51.206;6.888;2023-11-19T13:26:40;13.60;99.90
5246;DHT22;54412;51.206;6.888;2023-11-19T13:29:05;13.60;99.90
5246;DHT22;54412;51.206;6.888;2023-11-19T13:31:31;13.70;99.90
5246;DHT22;54412;51.206;6.888;2023-11-19T13:33:57;14.00;99.90
5246;DHT22;54412;51.206;6.888;2023-11-19T13:36:24;14.00;99.90
5246;DHT22;54412;51.206;6.888;2023-11-19T13:38:50;14.00;99.90
5246;DHT22;54412;51.206;6.888;2023-11-19T13:41:16;13.90;99.90
5246;DHT22;54412;51.206;6.888;2023-11-19T13:43:42;13.80;99.90
5246;DHT22;54412;51.206;6.888;2023-11-19T13:46:08;13.80;99.90
5246;DHT22;54412;51.206;6.888;2023-11-19T13:48:37;13.60;99.90
5246;DHT22;54412;51.206;6.888;2023-11-19T13:51:02;13.60;99.90
5246;DHT22;54412;51.206;6.888;2023-11-19T13:53:28;13.70;99.90
5246;DHT22;54412;51.206;6.888;2023-11-19T13:55:54;13.60;99.90
5246;DHT22;54412;51.206;6.888;2023-11-19T13:58:19;13.60;99.90
5246;DHT22;54412;51.206;6.888;2023-11-19T14:00:45;13.60;99.90
5246;DHT22;54412;51.206;6.888;2023-11-19T14:03:11;13.40;99.90
5246;DHT22;54412;51.206;6.888;2023-11-19T14:05:37;13.40;99.90
5246;DHT22;54412;51.206;6.888;2023-11-19T14:08:04;13.40;99.90
5246;DHT22;54412;51.206;6.888;2023-11-19T14:10:37;13.30;99.90
5246;DHT22;54412;51.206;6.888;2023-11-19T14:13:04;13.30;99.90
5246;DHT22;54412;51.206;6.888;2023-11-19T14:15:30;13.30;99.90
5246;DHT22;54412;51.206;6.888;2023-11-19T14:17:56;13.30;99.90
5246;DHT22;54412;51.206;6.888;2023-11-19T14:20:22;13.30;99.90
5246;DHT22;54412;51.206;6.888;2023-11-19T14:22:48;13.30;99.90
5246;DHT22;54412;51.206;6.888;2023-11-19T14:25:15;13.20;99.90
5246;DHT22;54412;51.206;6.888;2023-11-19T14:27:43;13.20;99.90
5246;DHT22;54412;51.206;6.888;2023-11-19T14:30:11;13.10;99.90
5246;DHT22;54412;51.206;6.888;2023-11-19T14:32:40;13.00;99.90
5246;DHT22;54412;51.206;6.888;2023-11-19T14:35:11;13.00;99.90
5246;DHT22;54412;51.206;6.888;2023-11-19T14:37:37;12.90;99.90
5246;DHT22;54412;51.206;6.888;2023-11-19T14:40:03;12.80;99.90
5246;DHT22;54412;51.206;6.888;2023-11-19T14:42:31;12.70;99.90
5246;DHT22;54412;51.206;6.888;2023-11-19T14:44:56;12.80;99.90
5246;DHT22;54412;51.206;6.888;2023-11-19T14:47:22;12.70;99.90
5246;DHT22;54412;51.206;6.888;2023-11-19T14:49:49;12.60;99.90
5246;DHT22;54412;51.206;6.888;2023-11-19T14:52:15;12.50;99.90
5246;DHT22;54412;51.206;6.888;2023-11-19T14:54:41;12.50;99.90
5246;DHT22;54412;51.206;6.888;2023-11-19T14:57:07;12.50;99.90
5246;DHT22;54412;51.206;6.888;2023-11-19T14:59:36;12.50;99.90
5246;DHT22;54412;51.206;6.888;2023-11-19T15:02:03;12.50;99.90
5246;DHT22;54412;51.206;6.888;2023-11-19T15:04:29;12.50;99.90
5246;DHT22;54412;51.206;6.888;2023-11-19T15:06:59;12.50;99.90
5246;DHT22;54412;51.206;6.888;2023-11-19T15:09:25;12.50;99.90
5246;DHT22;54412;51.206;6.888;2023-11-19T15:11:54;12.40;99.90
5246;DHT22;54412;51.206;6.888;2023-11-19T15:14:20;12.40;99.90
5246;DHT22;54412;51.206;6.888;2023-11-19T15:16:47;12.40;99.90
5246;DHT22;54412;51.206;6.888;2023-11-19T15:19:15;12.50;99.90
5246;DHT22;54412;51.206;6.888;2023-11-19T15:21:41;12.40;99.90
5246;DHT22;54412;51.206;6.888;2023-11-19T15:24:08;12.40;99.90
5246;DHT22;54412;51.206;6.888;2023-11-19T15:26:34;12.40;99.90
5246;DHT22;54412;51.206;6.888;2023-11-19T15:29:01;12.30;99.90
5246;DHT22;54412;51.206;6.888;2023-11-19T15:31:28;12.20;99.90
5246;DHT22;54412;51.206;6.888;2023-11-19T15:33:54;12.30;99.90
5246;DHT22;54412;51.206;6.888;2023-11-19T15:36:19;12.30;99.90
5246;DHT22;54412;51.206;6.888;2023-11-19T15:38:45;12.30;99.90
5246;DHT22;54412;51.206;6.888;2023-11-19T15:41:11;12.30;99.90
5246;DHT22;54412;51.206;6.888;2023-11-19T15:43:37;12.30;99.90
5246;DHT22;54412;51.206;6.888;2023-11-19T15:46:09;12.30;99.90
5246;DHT22;54412;51.206;6.888;2023-11-19T15:48:36;12.30;99.90
5246;DHT22;54412;51.206;6.888;2023-11-19T15:51:02;12.30;99.90
5246;DHT22;54412;51.206;6.888;2023-11-19T15:53:31;12.40;99.90
5246;DHT22;54412;51.206;6.888;2023-11-19T15:55:58;12.30;99.90
5246;DHT22;54412;51.206;6.888;2023-11-19T15:58:24;12.30;99.90
5246;DHT22;54412;51.206;6.888;2023-11-19T16:00:50;12.40;99.90
5246;DHT22;54412;51.206;6.888;2023-11-19T16:03:16;12.40;99.90
5246;DHT22;54412;51.206;6.888;2023-11-19T16:05:42;12.40;99.90
5246;DHT22;54412;51.206;6.888;2023-11-19T16:08:08;12.40;99.90